createdAt,value
2022-09-04T00:00:09.216Z,2.77
2022-09-04T00:02:53.428Z,2.80
2022-09-04T00:05:30.647Z,2.57
2022-09-04T00:08:28.496Z,2.70
2022-09-04T00:11:02.006Z,2.70
2022-09-04T00:13:34.746Z,3.00
2022-09-04T00:16:09.643Z,2.73
2022-09-04T00:18:48.033Z,3.00
2022-09-04T00:21:22.019Z,2.70
2022-09-04T00:23:57.244Z,2.60
2022-09-04T00:26:39.926Z,2.80
2022-09-04T00:29:13.345Z,2.80
2022-09-04T00:31:45.613Z,2.60
2022-09-04T00:34:28.068Z,2.90
2022-09-04T00:37:01.672Z,2.90
2022-09-04T00:39:39.081Z,3.10
2022-09-04T00:42:19.872Z,3.03
2022-09-04T00:44:58.940Z,2.50
2022-09-04T00:47:52.698Z,2.80
2022-09-04T00:50:41.932Z,2.70
2022-09-04T00:53:33.677Z,2.60
2022-09-04T00:56:28.462Z,2.40
2022-09-04T00:59:11.659Z,2.57
2022-09-04T01:01:40.273Z,2.57
2022-09-04T01:04:37.629Z,2.50
2022-09-04T01:07:24.237Z,2.70
2022-09-04T01:10:22.897Z,2.90
2022-09-04T01:12:58.249Z,2.80
2022-09-04T01:15:37.769Z,3.07
2022-09-04T01:18:12.740Z,2.50
2022-09-04T01:21:15.651Z,2.57
2022-09-04T01:24:11.986Z,2.70
2022-09-04T01:26:49.154Z,2.47
2022-09-04T01:29:40.050Z,2.60
2022-09-04T01:32:13.523Z,2.47
2022-09-04T01:34:51.993Z,2.50
2022-09-04T01:37:32.126Z,3.17
2022-09-04T01:40:35.210Z,3.10
2022-09-04T01:43:11.436Z,2.77
2022-09-04T01:45:56.374Z,3.30
2022-09-04T01:48:33.223Z,2.97
2022-09-04T01:51:07.584Z,2.93
2022-09-04T01:53:40.129Z,3.10
2022-09-04T01:56:17.690Z,3.00
2022-09-04T01:58:53.155Z,3.27
2022-09-04T02:01:32.728Z,2.90
2022-09-04T02:04:08.592Z,2.83
2022-09-04T02:06:50.607Z,3.00
2022-09-04T02:09:32.714Z,3.30
2022-09-04T02:12:11.267Z,3.40
2022-09-04T02:14:48.269Z,3.50
2022-09-04T02:17:21.373Z,2.97
2022-09-04T02:20:04.313Z,3.00
2022-09-04T02:22:45.106Z,3.20
2022-09-04T02:25:25.178Z,3.10
2022-09-04T02:28:05.264Z,3.20
2022-09-04T02:30:42.123Z,3.10
2022-09-04T02:33:16.022Z,3.33
2022-09-04T02:35:52.735Z,3.50
2022-09-04T02:38:31.562Z,3.40
2022-09-04T02:41:07.544Z,3.37
2022-09-04T02:43:50.683Z,3.33
2022-09-04T02:46:29.599Z,3.73
2022-09-04T02:49:08.707Z,3.27
2022-09-04T02:52:02.114Z,3.87
2022-09-04T02:54:54.365Z,3.37
2022-09-04T02:57:34.854Z,3.43
2022-09-04T03:00:10.095Z,3.30
2022-09-04T03:02:47.495Z,3.27
2022-09-04T03:05:21.478Z,3.40
2022-09-04T03:07:59.997Z,3.60
2022-09-04T03:10:33.950Z,3.20
2022-09-04T03:13:08.596Z,3.10
2022-09-04T03:15:44.890Z,3.23
2022-09-04T03:18:21.898Z,3.30
2022-09-04T03:20:56.151Z,3.30
2022-09-04T03:23:34.049Z,3.50
2022-09-04T03:26:23.248Z,3.73
2022-09-04T03:29:04.130Z,3.63
2022-09-04T03:31:38.415Z,3.07
2022-09-04T03:34:32.122Z,3.57
2022-09-04T03:37:34.243Z,3.43
2022-09-04T03:40:22.671Z,3.50
2022-09-04T03:43:06.385Z,3.53
2022-09-04T03:45:48.516Z,3.43
2022-09-04T03:48:29.815Z,3.53
2022-09-04T03:51:05.387Z,3.40
2022-09-04T03:53:42.140Z,3.60
2022-09-04T03:56:33.682Z,3.33
2022-09-04T03:59:05.879Z,3.27
2022-09-04T04:01:46.650Z,3.50
2022-09-04T04:04:52.355Z,3.13
2022-09-04T04:07:36.412Z,3.30
2022-09-04T04:10:15.175Z,3.20
2022-09-04T04:13:02.918Z,3.23
2022-09-04T04:15:43.624Z,3.30
2022-09-04T04:18:28.603Z,3.33
2022-09-04T04:21:05.759Z,3.27
2022-09-04T04:24:02.184Z,3.40
2022-09-04T04:26:40.809Z,3.20
2022-09-04T04:29:37.315Z,3.37
2022-09-04T04:32:26.411Z,3.10
2022-09-04T04:35:09.082Z,3.30
2022-09-04T04:37:50.503Z,3.67
2022-09-04T04:40:30.402Z,3.50
2022-09-04T04:43:06.905Z,3.43
2022-09-04T04:45:52.731Z,3.67
2022-09-04T04:48:50.839Z,3.63
2022-09-04T04:51:53.308Z,3.43
2022-09-04T04:54:36.195Z,3.37
2022-09-04T04:57:14.307Z,3.47
2022-09-04T04:59:49.437Z,3.63
2022-09-04T05:02:26.564Z,3.47
2022-09-04T05:05:03.544Z,3.53
2022-09-04T05:07:37.839Z,3.43
2022-09-04T05:10:18.484Z,3.47
2022-09-04T05:13:08.877Z,3.40
2022-09-04T05:16:05.147Z,3.60
2022-09-04T05:18:36.402Z,3.50
2022-09-04T05:21:13.971Z,3.27
2022-09-04T05:23:51.200Z,3.80
2022-09-04T05:26:29.006Z,3.57
2022-09-04T05:29:06.728Z,3.33
2022-09-04T05:31:44.117Z,3.20
2022-09-04T05:34:23.407Z,3.50
2022-09-04T05:37:04.318Z,3.70
2022-09-04T05:39:46.228Z,3.40
2022-09-04T05:42:39.343Z,3.60
2022-09-04T05:45:19.570Z,3.40
2022-09-04T05:47:59.833Z,3.30
2022-09-04T05:51:05.666Z,3.47
2022-09-04T05:54:00.966Z,3.47
2022-09-04T05:57:02.339Z,3.30
2022-09-04T05:59:54.724Z,3.37
2022-09-04T06:03:06.552Z,3.30
2022-09-04T06:05:52.687Z,3.33
2022-09-04T06:08:33.850Z,3.10
2022-09-04T06:11:24.046Z,3.70
2022-09-04T06:14:03.371Z,3.60
2022-09-04T06:16:56.627Z,3.40
2022-09-04T06:19:48.561Z,3.50
2022-09-04T06:22:42.058Z,3.23
2022-09-04T06:25:37.863Z,3.20
2022-09-04T06:28:21.709Z,3.07
2022-09-04T06:30:58.834Z,4.10
2022-09-04T06:33:57.846Z,3.53
2022-09-04T06:36:46.721Z,3.70
2022-09-04T06:39:36.878Z,3.47
2022-09-04T06:42:17.895Z,3.03
2022-09-04T06:45:02.863Z,3.20
2022-09-04T06:47:48.106Z,2.83
2022-09-04T06:50:31.573Z,3.10
2022-09-04T06:53:21.455Z,3.60
2022-09-04T06:56:04.959Z,3.37
2022-09-04T06:59:06.006Z,3.80
2022-09-04T07:01:44.224Z,3.40
2022-09-04T07:04:25.463Z,2.90
2022-09-04T07:07:06.516Z,4.10
2022-09-04T07:09:42.994Z,3.37
2022-09-04T07:12:49.507Z,3.67
2022-09-04T07:15:47.767Z,3.80
2022-09-04T07:18:38.916Z,3.30
2022-09-04T07:21:16.440Z,3.27
2022-09-04T07:23:57.869Z,4.10
2022-09-04T07:26:38.166Z,4.10
2022-09-04T07:29:32.881Z,3.73
2022-09-04T07:32:07.094Z,4.00
2022-09-04T07:34:45.159Z,3.70
2022-09-04T07:37:25.216Z,3.67
2022-09-04T07:40:04.812Z,4.07
2022-09-04T07:42:44.872Z,3.00
2022-09-04T07:45:24.133Z,3.80
2022-09-04T07:48:07.069Z,4.00
2022-09-04T07:50:40.375Z,3.10
2022-09-04T07:53:24.357Z,3.83
2022-09-04T07:55:57.412Z,3.60
2022-09-04T07:58:54.293Z,4.20
2022-09-04T08:01:46.549Z,3.80
2022-09-04T08:04:33.646Z,3.80
2022-09-04T08:07:10.846Z,3.65
2022-09-04T08:09:55.516Z,3.42
2022-09-04T08:12:45.451Z,4.00
2022-09-04T08:15:22.160Z,3.78
2022-09-04T08:18:09.121Z,3.55
2022-09-04T08:20:53.232Z,3.40
2022-09-04T08:23:47.139Z,3.33
2022-09-04T08:26:21.500Z,3.63
2022-09-04T08:29:08.818Z,3.38
2022-09-04T08:31:44.260Z,3.28
2022-09-04T08:34:53.134Z,3.30
2022-09-04T08:37:28.305Z,3.58
2022-09-04T08:40:20.957Z,2.78
2022-09-04T08:43:27.998Z,3.33
2022-09-04T08:46:32.654Z,3.20
2022-09-04T08:49:42.923Z,3.67
2022-09-04T08:52:50.887Z,3.30
2022-09-04T08:55:48.152Z,3.20
2022-09-04T08:58:56.868Z,3.47
2022-09-04T09:02:04.469Z,4.45
2022-09-04T09:05:06.663Z,3.50
2022-09-04T09:07:59.883Z,3.45
2022-09-04T09:11:03.988Z,3.40
2022-09-04T09:14:07.273Z,4.13
2022-09-04T09:16:44.672Z,4.00
2022-09-04T09:19:44.615Z,3.92
2022-09-04T09:22:30.569Z,3.58
2022-09-04T09:25:20.967Z,3.80
2022-09-04T09:28:19.169Z,3.63
2022-09-04T09:31:20.027Z,3.22
2022-09-04T09:34:15.549Z,3.72
2022-09-04T09:37:21.777Z,3.30
2022-09-04T09:40:47.044Z,3.58
2022-09-04T09:43:48.784Z,3.47
2022-09-04T09:46:48.761Z,3.83
2022-09-04T09:49:55.293Z,3.40
2022-09-04T09:52:45.090Z,3.25
2022-09-04T09:55:52.504Z,3.35
2022-09-04T09:58:57.182Z,3.17
2022-09-04T10:01:57.841Z,3.10
2022-09-04T10:05:12.340Z,2.92
2022-09-04T10:08:04.841Z,3.42
2022-09-04T10:11:23.926Z,3.08
2022-09-04T10:14:29.402Z,3.60
2022-09-04T10:17:39.643Z,2.92
2022-09-04T10:20:42.749Z,2.88
2022-09-04T10:23:37.221Z,3.55
2022-09-04T10:26:40.414Z,2.88
2022-09-04T10:29:38.613Z,3.97
2022-09-04T10:32:43.645Z,3.40
2022-09-04T10:35:25.627Z,3.03
2022-09-04T10:38:32.235Z,3.30
2022-09-04T10:41:48.249Z,3.05
2022-09-04T10:44:44.928Z,3.65
2022-09-04T10:47:30.366Z,3.40
2022-09-04T10:50:17.373Z,3.33
2022-09-04T10:53:08.391Z,3.22
2022-09-04T10:55:58.918Z,3.22
2022-09-04T10:58:40.155Z,3.22
2022-09-04T11:01:55.175Z,3.55
2022-09-04T11:04:45.951Z,3.30
2022-09-04T11:07:28.857Z,3.38
2022-09-04T11:10:24.767Z,2.97
2022-09-04T11:13:29.897Z,2.97
2022-09-04T11:16:29.834Z,2.85
2022-09-04T11:19:34.778Z,2.92
2022-09-04T11:22:44.835Z,2.45
2022-09-04T11:25:52.359Z,3.08
2022-09-04T11:28:49.126Z,3.10
2022-09-04T11:31:48.616Z,3.03
2022-09-04T11:34:55.875Z,2.75
2022-09-04T11:37:48.746Z,2.67
2022-09-04T11:40:45.207Z,3.10
2022-09-04T11:43:42.865Z,2.78
2022-09-04T11:46:42.960Z,2.97
2022-09-04T11:49:36.648Z,2.38
2022-09-04T11:52:18.282Z,2.40
2022-09-04T11:55:17.085Z,2.40
2022-09-04T11:57:59.701Z,2.47
2022-09-04T12:00:34.974Z,2.58
2022-09-04T12:03:30.721Z,2.65
2022-09-04T12:06:15.548Z,2.70
2022-09-04T12:09:21.731Z,2.85
2022-09-04T12:12:11.342Z,2.72
2022-09-04T12:15:22.446Z,2.72
2022-09-04T12:18:33.711Z,2.50
2022-09-04T12:21:36.130Z,2.65
2022-09-04T12:24:34.907Z,2.38
2022-09-04T12:27:39.673Z,2.25
2022-09-04T12:30:15.269Z,2.20
2022-09-04T12:33:09.972Z,2.58
2022-09-04T12:36:28.124Z,2.40
2022-09-04T12:39:42.385Z,2.60
2022-09-04T12:42:16.172Z,2.20
2022-09-04T12:44:58.838Z,1.85
2022-09-04T12:47:41.930Z,2.03
2022-09-04T12:50:28.448Z,1.83
2022-09-04T12:53:19.439Z,2.45
2022-09-04T12:56:01.384Z,2.03
2022-09-04T12:58:43.149Z,2.08
2022-09-04T13:01:20.188Z,2.28
2022-09-04T13:04:00.069Z,2.20
2022-09-04T13:06:40.068Z,1.83
2022-09-04T13:09:19.004Z,2.08
2022-09-04T13:11:58.898Z,2.33
2022-09-04T13:15:10.238Z,2.20
2022-09-04T13:17:48.512Z,2.00
2022-09-04T13:20:27.694Z,2.03
2022-09-04T13:23:12.616Z,1.95
2022-09-04T13:25:57.653Z,2.10
2022-09-04T13:28:35.477Z,1.63
2022-09-04T13:31:30.895Z,1.90
2022-09-04T13:34:07.817Z,3.10
2022-09-04T13:36:45.882Z,2.40
2022-09-04T13:39:45.607Z,2.10
2022-09-04T13:42:52.599Z,1.90
2022-09-04T13:45:24.050Z,1.90
2022-09-04T13:48:00.450Z,2.15
2022-09-04T13:50:33.686Z,1.90
2022-09-04T13:53:12.400Z,1.83
2022-09-04T13:55:44.030Z,2.40
2022-09-04T13:58:22.198Z,2.30
2022-09-04T14:00:53.581Z,1.88
2022-09-04T14:03:39.333Z,2.40
2022-09-04T14:06:15.026Z,1.85
2022-09-04T14:09:00.149Z,1.88
2022-09-04T14:11:58.213Z,2.47
2022-09-04T14:14:57.041Z,2.10
2022-09-04T14:17:34.470Z,1.77
2022-09-04T14:20:13.802Z,1.73
2022-09-04T14:22:52.325Z,1.98
2022-09-04T14:25:30.626Z,2.35
2022-09-04T14:28:07.879Z,2.28
2022-09-04T14:30:46.785Z,2.20
2022-09-04T14:33:28.447Z,2.20
2022-09-04T14:36:15.179Z,1.90
2022-09-04T14:38:57.418Z,2.10
2022-09-04T14:41:43.270Z,2.28
2022-09-04T14:44:27.112Z,2.22
2022-09-04T14:47:07.651Z,2.30
2022-09-04T14:49:47.269Z,1.95
2022-09-04T14:52:20.349Z,2.20
2022-09-04T14:54:54.403Z,2.17
2022-09-04T14:57:30.106Z,2.33
2022-09-04T15:00:06.297Z,2.42
2022-09-04T15:02:41.415Z,2.70
2022-09-04T15:05:22.420Z,2.75
2022-09-04T15:08:02.820Z,2.42
2022-09-04T15:10:50.801Z,2.55
2022-09-04T15:13:54.489Z,3.13
2022-09-04T15:16:30.003Z,2.65
2022-09-04T15:19:12.930Z,2.85
2022-09-04T15:21:50.444Z,3.38
2022-09-04T15:24:26.735Z,2.50
2022-09-04T15:27:01.831Z,2.30
2022-09-04T15:29:40.994Z,2.50
2022-09-04T15:32:14.135Z,2.40
2022-09-04T15:34:46.327Z,2.50
2022-09-04T15:37:22.399Z,2.13
2022-09-04T15:39:59.779Z,2.38
2022-09-04T15:42:39.981Z,2.72
2022-09-04T15:45:19.839Z,2.45
2022-09-04T15:48:17.473Z,3.00
2022-09-04T15:51:01.099Z,2.50
2022-09-04T15:53:34.599Z,2.72
2022-09-04T15:56:27.320Z,2.90
2022-09-04T15:59:04.951Z,2.17
2022-09-04T16:01:46.139Z,3.20
2022-09-04T16:04:26.562Z,5.25
2022-09-04T16:07:00.582Z,4.80
2022-09-04T16:09:35.465Z,3.15
2022-09-04T16:12:11.805Z,2.88
2022-09-04T16:14:48.517Z,3.28
2022-09-04T16:17:25.450Z,2.40
2022-09-04T16:20:00.737Z,2.40
2022-09-04T16:22:40.258Z,2.80
2022-09-04T16:25:11.267Z,3.40
2022-09-04T16:27:48.671Z,3.15
2022-09-04T16:30:37.692Z,2.40
2022-09-04T16:33:25.079Z,2.17
2022-09-04T16:36:01.135Z,2.60
2022-09-04T16:38:40.895Z,2.92
2022-09-04T16:41:15.123Z,2.80
2022-09-04T16:44:13.941Z,2.85
2022-09-04T16:47:02.692Z,2.90
2022-09-04T16:49:40.857Z,4.07
2022-09-04T16:52:32.052Z,7.70
2022-09-04T16:55:09.044Z,7.60
2022-09-04T16:57:43.879Z,4.47
2022-09-04T17:00:14.697Z,4.40
2022-09-04T17:02:50.898Z,3.75
2022-09-04T17:05:35.302Z,3.20
2022-09-04T17:08:12.171Z,3.45
2022-09-04T17:10:45.947Z,2.78
2022-09-04T17:13:27.723Z,2.97
2022-09-04T17:16:10.992Z,2.67
2022-09-04T17:18:48.609Z,2.97
2022-09-04T17:24:25.195Z,2.70
2022-09-04T17:29:07.542Z,2.30
2022-09-04T17:29:14.771Z,2.28
2022-09-04T17:30:36.263Z,2.40
2022-09-04T17:38:12.217Z,2.30
2022-09-04T17:40:40.468Z,2.95
2022-09-04T17:40:42.298Z,2.55
2022-09-04T17:42:09.606Z,2.47
2022-09-04T17:44:50.706Z,2.70
2022-09-04T17:47:29.660Z,2.50
2022-09-04T17:50:00.766Z,2.58
2022-09-04T17:52:32.377Z,2.55
2022-09-04T17:55:06.864Z,2.42
2022-09-04T17:57:50.861Z,2.80
2022-09-04T18:00:24.489Z,2.50
2022-09-04T18:03:01.466Z,2.50
2022-09-04T18:05:36.427Z,2.42
2022-09-04T18:08:18.681Z,2.50
2022-09-04T18:10:56.480Z,2.65
2022-09-04T18:13:37.966Z,3.03
2022-09-04T18:16:18.454Z,2.63
2022-09-04T18:18:50.844Z,2.75
2022-09-04T18:21:25.517Z,2.45
2022-09-04T18:24:01.602Z,2.90
2022-09-04T18:26:41.169Z,2.67
2022-09-04T18:30:11.883Z,3.50
2022-09-04T18:37:09.302Z,3.55
2022-09-04T18:37:21.858Z,3.95
2022-09-04T18:38:37.611Z,4.38
2022-09-04T18:44:19.358Z,4.32
2022-09-04T18:50:22.893Z,4.00
2022-09-04T18:50:34.958Z,3.20
2022-09-04T18:50:36.443Z,3.20
2022-09-04T18:53:09.327Z,3.20
2022-09-04T18:55:47.313Z,3.13
2022-09-04T18:58:38.418Z,3.00
2022-09-04T19:01:14.947Z,3.05
2022-09-04T19:03:47.422Z,3.25
2022-09-04T19:06:19.979Z,3.50
2022-09-04T19:08:53.202Z,3.47
2022-09-04T19:11:29.230Z,3.42
2022-09-04T19:14:10.363Z,4.00
2022-09-04T19:16:45.175Z,4.20
2022-09-04T19:19:20.840Z,3.90
2022-09-04T19:21:58.837Z,3.85
2022-09-04T19:24:37.299Z,3.83
2022-09-04T19:27:26.759Z,3.65
2022-09-04T19:30:18.719Z,3.60
2022-09-04T19:33:03.179Z,3.47
2022-09-04T19:35:38.627Z,3.80
2022-09-04T19:42:04.694Z,3.90
2022-09-04T19:46:06.661Z,3.75
2022-09-04T19:46:13.996Z,3.92
2022-09-04T19:47:08.924Z,4.18
2022-09-04T19:53:19.393Z,4.43
2022-09-04T19:53:33.024Z,4.00
2022-09-04T19:56:10.139Z,4.13
2022-09-04T19:58:42.562Z,3.95
2022-09-04T20:01:18.359Z,4.03
2022-09-04T20:03:56.135Z,4.18
2022-09-04T20:06:32.257Z,4.45
2022-09-04T20:09:08.588Z,4.40
2022-09-04T20:11:43.575Z,4.28
2022-09-04T20:14:21.524Z,4.22
2022-09-04T20:17:04.507Z,4.03
2022-09-04T20:19:40.195Z,4.28
2022-09-04T20:22:26.746Z,4.28
2022-09-04T20:25:10.493Z,4.53
2022-09-04T20:27:46.306Z,4.53
2022-09-04T20:30:21.461Z,4.93
2022-09-04T20:32:56.689Z,4.60
2022-09-04T20:35:35.909Z,4.63
2022-09-04T20:38:22.862Z,4.68
2022-09-04T20:40:56.049Z,4.68
2022-09-04T20:43:33.858Z,4.75
2022-09-04T20:50:56.429Z,4.95
2022-09-04T20:52:52.614Z,4.60
2022-09-04T20:53:00.202Z,4.73
2022-09-04T20:55:09.607Z,5.28
2022-09-04T21:02:50.632Z,5.03
2022-09-04T21:03:17.138Z,5.15
2022-09-04T21:04:01.616Z,4.73
2022-09-04T21:06:36.222Z,5.20
2022-09-04T21:09:22.813Z,5.10
2022-09-04T21:12:00.848Z,4.73
2022-09-04T21:14:44.757Z,4.70
2022-09-04T21:17:38.993Z,4.78
2022-09-04T21:20:29.479Z,4.80
2022-09-04T21:23:15.060Z,4.87
2022-09-04T21:25:51.950Z,4.90
2022-09-04T21:29:09.146Z,4.83
2022-09-04T21:32:15.937Z,4.90
2022-09-04T21:34:57.694Z,5.27
2022-09-04T21:37:38.085Z,5.30
2022-09-04T21:40:49.642Z,5.10
2022-09-04T21:43:55.871Z,5.67
2022-09-04T21:46:49.316Z,5.10
2022-09-04T21:49:51.809Z,5.23
2022-09-04T21:52:48.999Z,5.90
2022-09-04T21:58:04.928Z,5.90
2022-09-04T22:02:36.873Z,5.47
2022-09-04T22:02:42.249Z,5.70
2022-09-04T22:04:57.208Z,5.87
2022-09-04T22:13:27.646Z,6.10
2022-09-04T22:13:33.498Z,5.23
2022-09-04T22:13:50.146Z,5.70
2022-09-04T22:16:43.772Z,5.13
2022-09-04T22:19:41.785Z,5.40
2022-09-04T22:22:31.551Z,5.80
2022-09-04T22:25:19.836Z,5.50
2022-09-04T22:28:22.204Z,6.00
2022-09-04T22:31:11.410Z,5.93
2022-09-04T22:34:16.398Z,6.13
2022-09-04T22:37:11.180Z,6.07
2022-09-04T22:40:03.151Z,5.33
2022-09-04T22:42:51.926Z,6.03
2022-09-04T22:45:43.913Z,6.00
2022-09-04T22:48:47.323Z,5.90
2022-09-04T22:51:38.506Z,6.70
2022-09-04T22:54:31.952Z,6.20
2022-09-04T22:57:05.567Z,6.03
2022-09-04T23:00:06.529Z,6.50
2022-09-04T23:03:29.767Z,6.10
2022-09-04T23:09:04.480Z,6.50
2022-09-04T23:13:44.173Z,6.10
2022-09-04T23:13:52.627Z,6.87
2022-09-04T23:16:54.832Z,6.00
2022-09-04T23:21:10.529Z,6.40
2022-09-04T23:26:47.559Z,6.37
2022-09-04T23:26:47.717Z,6.33
2022-09-04T23:29:44.489Z,6.13
2022-09-04T23:32:58.787Z,6.03
2022-09-04T23:35:42.689Z,6.03
2022-09-04T23:38:38.745Z,6.30
2022-09-04T23:41:19.022Z,6.20
2022-09-04T23:44:26.937Z,5.80
2022-09-04T23:47:48.687Z,5.80
2022-09-04T23:50:07.355Z,5.87
2022-09-04T23:52:50.539Z,5.97
2022-09-04T23:55:41.485Z,6.23
2022-09-04T23:58:52.171Z,5.77
